Time;durP1;ratioP1;P1;durP2;ratioP2;P2;SDS_P1;SDS_P2;PMS_P1;PMS_P2;Temp;Humidity;BMP_temperature;BMP_pressure;BME280_temperature;BME280_humidity;BME280_pressure;Samples;Min_cycle;Max_cycle;Signal;HPM_P1;HPM_P2
2022/10/22 00:00:02;;;;;;;0.50;0.50;;;13.90;1.00;;;;;;6239179;23;20448;-78
2022/10/22 00:02:29;;;;;;;0.40;0.40;;;13.90;1.00;;;;;;6241075;22;20398;-78
2022/10/22 00:04:55;;;;;;;0.43;0.43;;;13.90;1.00;;;;;;6248827;23;20472;-78
2022/10/22 00:07:23;;;;;;;0.30;0.30;;;13.90;1.00;;;;;;6239953;23;20396;-78
2022/10/22 00:09:50;;;;;;;0.33;0.33;;;13.90;1.00;;;;;;6239422;23;20398;-78
2022/10/22 00:12:17;;;;;;;0.40;0.40;;;13.90;1.00;;;;;;6251113;22;20389;-78
2022/10/22 00:14:44;;;;;;;0.90;0.50;;;13.90;1.00;;;;;;6238928;23;20394;-78
2022/10/22 00:17:11;;;;;;;1.50;0.80;;;13.90;1.00;;;;;;6239394;23;20396;-78
2022/10/22 00:19:38;;;;;;;0.70;0.40;;;14.00;1.00;;;;;;6241234;22;20581;-78
2022/10/22 00:22:07;;;;;;;0.60;0.60;;;14.00;1.00;;;;;;6251033;23;20580;-78
2022/10/22 00:24:34;;;;;;;0.55;0.40;;;14.00;1.00;;;;;;6239074;23;20397;-78
2022/10/22 00:27:02;;;;;;;0.40;0.40;;;14.00;1.00;;;;;;6251287;22;20390;-78
2022/10/22 00:29:29;;;;;;;1.00;0.50;;;14.00;1.00;;;;;;6240826;23;20390;-79
2022/10/22 00:31:56;;;;;;;0.52;0.52;;;14.00;1.00;;;;;;6240833;23;20394;-78
2022/10/22 00:34:23;;;;;;;0.50;0.50;;;14.00;1.00;;;;;;6236339;23;20397;-78
2022/10/22 00:36:51;;;;;;;0.50;0.50;;;14.00;1.00;;;;;;6239467;22;20440;-78
2022/10/22 00:39:20;;;;;;;0.50;0.50;;;14.00;1.00;;;;;;6239107;23;20389;-79
2022/10/22 00:41:49;;;;;;;0.50;0.50;;;14.00;1.00;;;;;;6240714;22;20389;-78
2022/10/22 00:44:53;;;;;;;0.60;0.40;;;13.90;1.00;;;;;;6240392;22;20393;-78
2022/10/22 00:47:22;;;;;;;0.40;0.40;;;13.90;1.00;;;;;;6241506;23;20459;-78
2022/10/22 00:49:50;;;;;;;0.80;0.50;;;13.90;1.00;;;;;;6241636;22;20981;-78
2022/10/22 00:52:17;;;;;;;2.28;0.50;;;13.90;1.00;;;;;;6239946;23;20393;-78
2022/10/22 00:54:44;;;;;;;0.30;0.30;;;13.90;1.00;;;;;;6249991;23;20386;-78
2022/10/22 00:57:11;;;;;;;0.50;0.50;;;13.80;1.00;;;;;;6243096;23;20390;-78
2022/10/22 00:59:38;;;;;;;0.55;0.55;;;13.80;1.00;;;;;;6248001;23;20464;-78
2022/10/22 01:02:05;;;;;;;0.40;0.40;;;13.80;1.00;;;;;;6240563;22;20480;-79
2022/10/22 01:04:31;;;;;;;2.85;0.60;;;13.80;1.00;;;;;;6240216;23;20390;-78
2022/10/22 01:06:58;;;;;;;0.40;0.40;;;13.80;1.00;;;;;;6240681;23;20472;-79
2022/10/22 01:09:36;;;;;;;0.40;0.20;;;13.80;1.00;;;;;;6250922;22;20389;-78
2022/10/22 01:12:27;;;;;;;0.50;0.50;;;13.80;1.00;;;;;;6249192;23;21081;-79
2022/10/22 01:15:21;;;;;;;0.37;0.30;;;13.70;1.00;;;;;;6238849;23;20389;-78
2022/10/22 01:18:09;;;;;;;0.30;0.30;;;13.70;1.00;;;;;;6240247;23;20397;-78
2022/10/22 01:20:48;;;;;;;1.40;0.40;;;13.60;1.00;;;;;;6253113;22;20472;-78
2022/10/22 01:23:39;;;;;;;1.00;0.60;;;13.60;1.00;;;;;;6240656;23;20382;-78
2022/10/22 01:26:11;;;;;;;0.30;0.30;;;13.50;5.40;;;;;;6241166;23;20392;-78
2022/10/22 01:29:11;;;;;;;0.20;0.20;;;13.50;19.60;;;;;;6242837;22;20382;-78
2022/10/22 01:31:46;;;;;;;0.60;0.50;;;13.50;27.90;;;;;;6242073;23;20886;-78
2022/10/22 01:34:17;;;;;;;0.60;0.47;;;13.50;30.60;;;;;;6240816;23;20473;-79
2022/10/22 01:36:46;;;;;;;0.30;0.30;;;13.50;28.20;;;;;;6240813;23;20385;-78
2022/10/22 01:39:15;;;;;;;0.40;0.40;;;13.50;29.20;;;;;;6240865;23;20937;-79
2022/10/22 01:41:45;;;;;;;0.30;0.30;;;13.50;33.50;;;;;;6242306;22;20393;-78
2022/10/22 01:44:32;;;;;;;0.63;0.60;;;13.50;38.60;;;;;;6240349;23;20726;-78
2022/10/22 01:47:30;;;;;;;1.00;0.47;;;13.50;38.50;;;;;;6250939;23;20861;-78
2022/10/22 01:50:15;;;;;;;0.28;0.28;;;13.60;37.30;;;;;;6241974;23;20928;-78
2022/10/22 01:52:58;;;;;;;0.45;0.45;;;13.50;27.10;;;;;;6241144;23;20591;-78
2022/10/22 01:55:53;;;;;;;0.90;0.40;;;13.50;19.10;;;;;;6240621;23;20441;-78
2022/10/22 01:59:04;;;;;;;0.47;0.47;;;13.50;1.00;;;;;;6241828;23;20390;-78
2022/10/22 02:01:55;;;;;;;0.43;0.43;;;13.40;1.00;;;;;;6119322;23;20452;-78
2022/10/22 02:04:27;;;;;;;0.47;0.45;;;13.40;1.00;;;;;;6118710;23;20400;-78
2022/10/22 02:07:16;;;;;;;0.30;0.27;;;13.30;1.00;;;;;;6119427;23;20395;-78
2022/10/22 02:10:04;;;;;;;0.30;0.30;;;13.30;1.00;;;;;;6118665;23;20471;-79
2022/10/22 02:12:32;;;;;;;0.38;0.38;;;13.30;2.40;;;;;;6094563;23;20456;-79
2022/10/22 02:15:01;;;;;;;0.20;0.20;;;13.30;1.40;;;;;;6118467;23;20884;-79
2022/10/22 02:17:48;;;;;;;0.80;0.60;;;13.30;1.00;;;;;;6129093;23;20392;-79
2022/10/22 02:20:50;;;;;;;0.28;0.28;;;13.30;1.00;;;;;;6118848;23;20460;-79
2022/10/22 02:23:20;;;;;;;3.50;0.40;;;13.30;1.00;;;;;;6118850;23;20430;-79
2022/10/22 02:25:54;;;;;;;0.80;0.50;;;13.30;1.00;;;;;;6119062;23;20420;-79
2022/10/22 02:28:40;;;;;;;0.30;0.30;;;13.30;1.00;;;;;;6118568;23;20706;-79
2022/10/22 02:31:32;;;;;;;1.50;0.30;;;13.20;1.00;;;;;;6118726;23;20392;-79
2022/10/22 02:34:07;;;;;;;0.50;0.25;;;13.20;1.00;;;;;;6128147;23;20393;-79
2022/10/22 02:36:35;;;;;;;0.25;0.25;;;13.20;1.00;;;;;;6158169;23;20448;-79
2022/10/22 02:39:22;;;;;;;0.20;0.20;;;13.10;1.00;;;;;;6251905;22;20420;-79
2022/10/22 02:41:48;;;;;;;0.30;0.30;;;13.10;1.00;;;;;;6240630;23;20386;-79
2022/10/22 02:44:20;;;;;;;0.20;0.20;;;13.00;1.00;;;;;;6241180;23;20385;-79
2022/10/22 02:46:47;;;;;;;0.20;0.20;;;13.00;1.00;;;;;;6251780;22;20940;-79
2022/10/22 02:49:14;;;;;;;0.20;0.20;;;13.00;1.00;;;;;;6241801;22;20393;-79
2022/10/22 02:51:41;;;;;;;0.10;0.10;;;12.90;1.00;;;;;;6239671;23;20477;-79
2022/10/22 02:54:08;;;;;;;0.40;0.30;;;12.80;1.00;;;;;;6250926;23;20470;-79
2022/10/22 02:56:34;;;;;;;0.20;0.20;;;12.80;1.00;;;;;;6251379;23;20439;-79
2022/10/22 02:59:01;;;;;;;0.32;0.32;;;12.70;1.00;;;;;;6250138;23;20392;-79
2022/10/22 03:01:31;;;;;;;0.30;0.30;;;12.70;1.00;;;;;;6239920;23;20777;-79
2022/10/22 03:03:57;;;;;;;0.30;0.30;;;12.60;1.00;;;;;;6239534;23;20754;-79
2022/10/22 03:06:24;;;;;;;0.20;0.20;;;12.60;1.00;;;;;;6241223;23;20382;-79
2022/10/22 03:08:56;;;;;;;0.20;0.20;;;12.50;1.00;;;;;;6240834;23;20374;-79
2022/10/22 03:11:22;;;;;;;0.40;0.22;;;12.50;1.00;;;;;;6241549;23;20869;-79
2022/10/22 03:13:49;;;;;;;0.30;0.20;;;12.50;1.00;;;;;;6251250;23;20770;-79
2022/10/22 03:16:16;;;;;;;0.20;0.20;;;12.40;1.00;;;;;;6241512;23;20389;-79
2022/10/22 03:18:42;;;;;;;0.17;0.17;;;12.40;1.00;;;;;;6241704;23;20390;-79
2022/10/22 03:21:30;;;;;;;0.10;0.10;;;12.40;1.00;;;;;;6241457;23;20389;-79
2022/10/22 03:23:58;;;;;;;0.30;0.30;;;12.40;1.00;;;;;;6240977;22;20888;-79
2022/10/22 03:26:25;;;;;;;0.28;0.28;;;12.40;1.00;;;;;;6241527;22;20393;-79
2022/10/22 03:28:53;;;;;;;0.20;0.10;;;12.40;1.00;;;;;;6240874;23;20389;-80
2022/10/22 03:31:19;;;;;;;0.20;0.20;;;12.30;1.00;;;;;;6239348;23;20390;-79
2022/10/22 03:33:49;;;;;;;0.10;0.10;;;12.30;1.00;;;;;;6238782;23;20397;-79
2022/10/22 03:36:15;;;;;;;0.20;0.20;;;12.30;1.00;;;;;;6240583;23;20389;-79
2022/10/22 03:38:42;;;;;;;0.10;0.10;;;12.30;1.00;;;;;;6251279;23;20385;-79
2022/10/22 03:41:12;;;;;;;0.60;0.30;;;12.40;1.00;;;;;;6251277;23;20385;-79
2022/10/22 03:43:48;;;;;;;0.17;0.17;;;12.40;1.40;;;;;;6250579;22;20716;-79
2022/10/22 03:46:15;;;;;;;0.20;0.20;;;12.50;7.00;;;;;;6251400;22;20386;-79
2022/10/22 03:48:48;;;;;;;0.10;0.10;;;12.50;10.50;;;;;;6241042;23;20757;-79
2022/10/22 03:51:14;;;;;;;0.70;0.17;;;12.60;12.10;;;;;;6250748;23;20761;-79
2022/10/22 03:53:41;;;;;;;0.30;0.20;;;12.60;7.80;;;;;;6240025;23;20402;-79
2022/10/22 03:56:12;;;;;;;0.20;0.20;;;12.50;1.00;;;;;;6250976;23;20767;-79
2022/10/22 03:58:41;;;;;;;0.10;0.10;;;12.50;1.00;;;;;;6239861;23;20397;-79
2022/10/22 04:01:09;;;;;;;0.15;0.15;;;12.40;1.00;;;;;;6240940;23;20855;-79
2022/10/22 04:03:38;;;;;;;0.20;0.20;;;12.40;1.00;;;;;;6241509;22;20401;-79
2022/10/22 04:06:11;;;;;;;0.10;0.10;;;12.40;1.00;;;;;;6242293;22;20393;-79
2022/10/22 04:08:39;;;;;;;0.10;0.10;;;12.40;1.00;;;;;;6255891;23;20412;-79
2022/10/22 04:11:06;;;;;;;0.20;0.20;;;12.50;1.00;;;;;;6240374;23;20424;-79
2022/10/22 04:13:33;;;;;;;0.20;0.20;;;12.40;3.20;;;;;;6240142;22;20397;-79
2022/10/22 04:16:16;;;;;;;0.43;0.28;;;12.50;11.10;;;;;;6240845;23;20416;-79
2022/10/22 04:18:43;;;;;;;0.77;0.45;;;12.50;14.40;;;;;;6240700;22;20443;-79
2022/10/22 04:21:12;;;;;;;0.20;0.20;;;12.50;13.50;;;;;;6240380;22;20389;-79
2022/10/22 04:23:47;;;;;;;0.20;0.20;;;12.60;11.20;;;;;;6239520;22;20931;-79
2022/10/22 04:26:20;;;;;;;0.30;0.30;;;12.50;8.60;;;;;;6240203;22;20398;-79
2022/10/22 04:28:48;;;;;;;0.40;0.30;;;12.50;7.50;;;;;;6239899;22;20448;-79
2022/10/22 04:31:18;;;;;;;0.20;0.20;;;12.50;4.80;;;;;;6239158;23;20721;-79
2022/10/22 04:33:45;;;;;;;0.22;0.22;;;12.50;4.40;;;;;;6239957;22;20447;-79
2022/10/22 04:36:16;;;;;;;0.20;0.20;;;12.50;3.90;;;;;;6240278;23;20386;-79
2022/10/22 04:38:50;;;;;;;0.30;0.20;;;12.50;7.70;;;;;;6240453;22;20390;-79
2022/10/22 04:41:19;;;;;;;0.33;0.33;;;12.50;10.40;;;;;;6240520;22;20435;-79
2022/10/22 04:43:47;;;;;;;0.20;0.20;;;12.60;11.70;;;;;;6240037;22;20451;-79
2022/10/22 04:46:19;;;;;;;0.20;0.20;;;12.60;9.80;;;;;;6250309;23;20436;-79
2022/10/22 04:48:46;;;;;;;0.20;0.20;;;12.60;7.00;;;;;;6250149;23;20396;-79
2022/10/22 04:51:19;;;;;;;0.10;0.10;;;12.60;2.40;;;;;;6240082;22;20960;-79
2022/10/22 04:53:46;;;;;;;0.10;0.10;;;12.60;3.10;;;;;;6238369;23;20786;-79
2022/10/22 04:56:18;;;;;;;0.28;0.28;;;12.70;3.90;;;;;;6239072;23;20397;-79
2022/10/22 04:59:05;;;;;;;0.10;0.10;;;12.70;2.60;;;;;;6240735;22;20440;-79
2022/10/22 05:01:41;;;;;;;0.20;0.20;;;12.70;1.50;;;;;;6249207;23;20421;-79
2022/10/22 05:04:15;;;;;;;0.20;0.20;;;12.70;1.00;;;;;;6248660;23;20422;-79
2022/10/22 05:06:42;;;;;;;0.20;0.20;;;12.70;1.00;;;;;;6239016;23;20394;-79
2022/10/22 05:09:15;;;;;;;0.20;0.20;;;12.80;1.00;;;;;;6239173;23;20390;-79
2022/10/22 05:11:50;;;;;;;0.20;0.20;;;12.80;1.00;;;;;;6240037;22;20429;-79
2022/10/22 05:14:22;;;;;;;0.10;0.10;;;12.80;1.00;;;;;;6238443;23;20448;-79
2022/10/22 05:16:52;;;;;;;0.20;0.20;;;12.80;1.00;;;;;;6240558;22;20761;-79
2022/10/22 05:19:25;;;;;;;0.22;0.22;;;12.80;1.00;;;;;;6249307;23;20447;-80
2022/10/22 05:21:54;;;;;;;0.10;0.10;;;12.80;1.00;;;;;;6249495;23;20427;-79
2022/10/22 05:24:21;;;;;;;0.20;0.20;;;12.80;1.00;;;;;;6250131;22;20408;-79
2022/10/22 05:26:49;;;;;;;0.32;0.30;;;12.80;1.00;;;;;;6240469;23;20460;-79
2022/10/22 05:29:16;;;;;;;0.15;0.15;;;12.90;1.00;;;;;;6238962;23;20394;-80
2022/10/22 05:31:43;;;;;;;0.20;0.20;;;12.90;1.00;;;;;;6240986;22;20874;-79
2022/10/22 05:34:18;;;;;;;0.30;0.30;;;12.90;1.00;;;;;;6250292;23;20743;-79
2022/10/22 05:36:45;;;;;;;0.20;0.20;;;12.90;1.00;;;;;;6240008;22;20394;-80
2022/10/22 05:39:11;;;;;;;0.17;0.17;;;12.90;1.00;;;;;;6238976;23;20762;-79
2022/10/22 05:41:43;;;;;;;0.20;0.20;;;13.00;1.00;;;;;;6248450;23;20382;-80
2022/10/22 05:44:11;;;;;;;0.13;0.13;;;12.90;1.00;;;;;;6239592;23;20398;-79
2022/10/22 05:46:38;;;;;;;0.10;0.10;;;12.90;1.00;;;;;;6249893;22;20941;-79
2022/10/22 05:49:12;;;;;;;1.50;0.20;;;13.00;1.00;;;;;;6240326;23;20401;-79
2022/10/22 05:51:39;;;;;;;0.17;0.17;;;13.00;1.00;;;;;;6238722;23;20432;-79
2022/10/22 05:54:07;;;;;;;0.50;0.20;;;13.00;1.00;;;;;;6249766;23;20386;-79
2022/10/22 05:56:35;;;;;;;0.20;0.20;;;13.00;1.00;;;;;;6239708;22;20913;-79
2022/10/22 05:59:02;;;;;;;0.93;0.43;;;13.00;1.00;;;;;;6250504;22;20390;-80
2022/10/22 06:01:34;;;;;;;0.20;0.20;;;13.00;1.00;;;;;;6240044;23;20385;-79
2022/10/22 06:04:04;;;;;;;0.17;0.13;;;13.00;1.00;;;;;;6239880;23;20386;-79
2022/10/22 06:06:41;;;;;;;0.20;0.20;;;13.00;1.00;;;;;;6240554;23;20386;-80
2022/10/22 06:09:30;;;;;;;0.10;0.10;;;13.00;1.00;;;;;;6242541;22;20440;-79
2022/10/22 06:11:57;;;;;;;0.20;0.20;;;13.00;1.00;;;;;;6251083;23;20475;-79
2022/10/22 06:14:25;;;;;;;0.20;0.20;;;13.00;1.00;;;;;;6250317;23;20385;-80
2022/10/22 06:16:52;;;;;;;0.60;0.30;;;13.00;1.00;;;;;;6252800;22;20393;-80
2022/10/22 06:19:20;;;;;;;0.30;0.30;;;13.00;1.00;;;;;;6242407;22;20444;-80
2022/10/22 06:21:50;;;;;;;0.20;0.20;;;13.00;1.00;;;;;;6251915;23;20386;-79
2022/10/22 06:24:19;;;;;;;0.20;0.20;;;13.00;1.00;;;;;;6240777;23;20874;-79
2022/10/22 06:26:49;;;;;;;0.20;0.20;;;13.00;1.00;;;;;;6243236;23;20398;-79
2022/10/22 06:29:16;;;;;;;0.15;0.15;;;12.90;1.00;;;;;;6242882;22;20386;-79
2022/10/22 06:31:43;;;;;;;0.10;0.10;;;12.80;1.00;;;;;;6253059;23;20765;-79
2022/10/22 06:34:12;;;;;;;0.10;0.10;;;12.80;1.00;;;;;;6252413;23;20385;-79
2022/10/22 06:36:42;;;;;;;0.60;0.20;;;12.70;1.00;;;;;;6252805;22;20381;-80
2022/10/22 06:39:12;;;;;;;0.50;0.20;;;12.70;1.00;;;;;;6242351;22;20464;-79
2022/10/22 06:41:39;;;;;;;0.28;0.28;;;12.70;1.00;;;;;;6241102;23;20394;-79
2022/10/22 06:44:05;;;;;;;0.20;0.20;;;12.70;1.00;;;;;;6240401;23;20515;-80
2022/10/22 06:46:32;;;;;;;0.20;0.20;;;12.70;1.00;;;;;;6241840;23;20398;-79
2022/10/22 06:49:01;;;;;;;0.10;0.10;;;12.70;99.90;;;;;;6241134;23;20394;-79
2022/10/22 06:51:31;;;;;;;0.13;0.13;;;12.70;99.90;;;;;;6242139;22;20389;-80
2022/10/22 06:53:58;;;;;;;0.10;0.10;;;12.70;99.90;;;;;;6240117;23;20397;-79
2022/10/22 06:56:28;;;;;;;0.10;0.10;;;12.70;99.90;;;;;;6241840;23;20408;-78
2022/10/22 06:58:56;;;;;;;0.20;0.20;;;12.70;99.90;;;;;;6239945;23;20892;-78
2022/10/22 07:01:26;;;;;;;0.10;0.10;;;12.80;95.90;;;;;;6251875;22;20388;-79
2022/10/22 07:03:53;;;;;;;0.30;0.20;;;12.90;1.00;;;;;;6255474;23;20734;-79
2022/10/22 07:06:23;;;;;;;0.20;0.20;;;13.00;99.90;;;;;;6242269;23;20393;-79
2022/10/22 07:08:54;;;;;;;0.20;0.13;;;13.00;99.90;;;;;;6242177;22;20390;-78
2022/10/22 07:11:27;;;;;;;0.17;0.17;;;13.10;1.00;;;;;;6250336;23;20424;-78
2022/10/22 07:13:56;;;;;;;0.20;0.20;;;13.20;1.00;;;;;;6240978;23;20390;-78
2022/10/22 07:16:23;;;;;;;0.30;0.30;;;13.50;1.00;;;;;;6258093;22;20377;-78
2022/10/22 07:18:59;;;;;;;0.20;0.20;;;13.80;1.00;;;;;;6241593;23;20900;-79
2022/10/22 07:21:25;;;;;;;0.50;0.20;;;14.20;99.90;;;;;;6241432;22;20418;-79
2022/10/22 07:23:52;;;;;;;3.10;0.30;;;14.60;1.00;;;;;;6239271;23;20777;-79
2022/10/22 07:26:20;;;;;;;0.20;0.20;;;14.70;99.90;;;;;;6239578;23;20394;-79
2022/10/22 07:28:49;;;;;;;0.20;0.20;;;14.90;99.90;;;;;;6241223;22;20711;-79
2022/10/22 07:31:17;;;;;;;2.00;0.28;;;15.10;99.90;;;;;;6241281;22;20452;-80
2022/10/22 07:33:44;;;;;;;0.20;0.20;;;15.30;1.00;;;;;;6249235;23;20396;-80
2022/10/22 07:36:16;;;;;;;0.20;0.20;;;15.30;1.00;;;;;;6250179;23;20770;-80
2022/10/22 07:38:52;;;;;;;0.20;0.20;;;15.30;1.00;;;;;;6249341;23;20447;-80
2022/10/22 07:41:18;;;;;;;1.20;0.20;;;15.40;1.00;;;;;;6241246;22;20448;-80
2022/10/22 07:43:45;;;;;;;0.30;0.30;;;15.30;1.00;;;;;;6240000;23;20402;-80
2022/10/22 07:46:12;;;;;;;0.20;0.20;;;15.50;1.00;;;;;;6240790;23;20386;-80
2022/10/22 07:48:39;;;;;;;0.20;0.20;;;15.50;1.00;;;;;;6241018;23;20401;-79
2022/10/22 07:51:06;;;;;;;0.10;0.10;;;15.50;1.00;;;;;;6240849;23;20393;-80
2022/10/22 07:53:33;;;;;;;0.20;0.20;;;15.40;1.00;;;;;;6240128;22;20401;-81
2022/10/22 07:56:00;;;;;;;0.27;0.20;;;15.50;1.00;;;;;;6238642;23;20390;-80
2022/10/22 07:58:27;;;;;;;0.10;0.10;;;15.60;1.00;;;;;;6249965;22;20802;-80
2022/10/22 08:00:59;;;;;;;0.40;0.22;;;15.90;1.00;;;;;;6240399;23;20862;-80
2022/10/22 08:03:28;;;;;;;0.80;0.10;;;15.80;1.00;;;;;;6237578;23;21852;-79
2022/10/22 08:05:57;;;;;;;0.20;0.20;;;15.90;1.00;;;;;;6240590;22;20420;-80
2022/10/22 08:08:25;;;;;;;0.70;0.20;;;15.80;1.00;;;;;;6240589;22;20382;-80
2022/10/22 08:10:58;;;;;;;0.30;0.30;;;15.90;1.00;;;;;;6240486;22;20672;-79
2022/10/22 08:13:25;;;;;;;0.20;0.20;;;15.90;1.00;;;;;;6248027;23;20394;-80
2022/10/22 08:15:52;;;;;;;0.13;0.13;;;16.00;1.00;;;;;;6239286;23;20392;-80
2022/10/22 08:18:23;;;;;;;0.20;0.20;;;16.00;1.00;;;;;;6238889;23;20394;-81
2022/10/22 08:20:53;;;;;;;0.20;0.20;;;15.90;1.00;;;;;;6240963;22;20443;-81
2022/10/22 08:23:20;;;;;;;0.90;0.30;;;16.00;1.00;;;;;;6239701;23;20394;-80
2022/10/22 08:25:55;;;;;;;0.80;0.30;;;16.10;99.90;;;;;;6250593;23;20445;-80
2022/10/22 08:28:21;;;;;;;0.20;0.20;;;16.20;99.90;;;;;;6250691;22;20404;-80
2022/10/22 08:30:48;;;;;;;0.20;0.20;;;16.00;99.90;;;;;;6240756;23;20602;-80
2022/10/22 08:33:15;;;;;;;0.30;0.30;;;16.20;99.90;;;;;;6238171;23;20802;-80
2022/10/22 08:35:46;;;;;;;0.20;0.20;;;16.40;99.90;;;;;;6250367;23;20389;-80
2022/10/22 08:38:12;;;;;;;0.30;0.30;;;16.70;99.90;;;;;;6250852;22;20394;-79
2022/10/22 08:40:51;;;;;;;0.20;0.20;;;17.00;99.90;;;;;;6240304;23;20386;-80
2022/10/22 08:43:39;;;;;;;0.10;0.10;;;17.00;99.90;;;;;;6238365;23;20397;-80
2022/10/22 08:46:41;;;;;;;0.30;0.30;;;17.00;99.90;;;;;;6240705;23;20386;-80
2022/10/22 08:49:26;;;;;;;0.10;0.10;;;17.10;99.90;;;;;;6233385;23;20393;-80
2022/10/22 08:52:14;;;;;;;0.60;0.30;;;17.10;99.90;;;;;;6249105;23;20850;-80
2022/10/22 08:54:57;;;;;;;0.20;0.20;;;16.80;99.90;;;;;;6239784;22;20398;-80
2022/10/22 08:58:02;;;;;;;0.20;0.20;;;17.10;99.90;;;;;;6250159;22;20440;-80
2022/10/22 09:01:01;;;;;;;0.10;0.10;;;17.30;99.90;;;;;;6240579;22;20393;-80
2022/10/22 09:03:35;;;;;;;0.10;0.10;;;17.90;99.90;;;;;;6239893;22;20408;-80
2022/10/22 09:06:20;;;;;;;0.25;0.25;;;18.10;99.90;;;;;;6240451;23;20479;-80
2022/10/22 09:08:47;;;;;;;0.20;0.20;;;17.70;99.90;;;;;;6240416;22;20436;-80
2022/10/22 09:11:34;;;;;;;0.15;0.15;;;17.90;99.90;;;;;;6238719;23;20866;-80
2022/10/22 09:14:02;;;;;;;0.10;0.10;;;18.10;99.90;;;;;;6238487;23;20394;-81
2022/10/22 09:16:35;;;;;;;0.23;0.23;;;18.20;99.90;;;;;;6239052;23;20397;-80
2022/10/22 09:19:45;;;;;;;0.20;0.20;;;18.70;99.90;;;;;;6240569;22;20394;-81
2022/10/22 09:22:31;;;;;;;0.20;0.20;;;18.80;99.90;;;;;;6142121;23;20452;-80
2022/10/22 09:25:10;;;;;;;0.30;0.25;;;19.30;99.90;;;;;;6117225;23;20404;-81
2022/10/22 09:27:40;;;;;;;0.20;0.20;;;19.60;99.90;;;;;;6117344;23;20400;-81
2022/10/22 09:30:21;;;;;;;0.60;0.17;;;18.90;99.90;;;;;;6117511;23;20860;-80
2022/10/22 09:32:54;;;;;;;0.10;0.10;;;18.80;99.90;;;;;;6117316;23;20400;-80
2022/10/22 09:35:23;;;;;;;0.20;0.20;;;19.00;99.90;;;;;;6117168;23;20817;-81
2022/10/22 09:37:53;;;;;;;0.17;0.17;;;19.30;99.90;;;;;;6117923;23;20403;-81
2022/10/22 09:40:21;;;;;;;0.28;0.20;;;19.80;99.90;;;;;;6119092;23;20463;-80
2022/10/22 09:42:48;;;;;;;0.10;0.10;;;20.00;99.90;;;;;;6119195;23;20404;-81
2022/10/22 09:45:22;;;;;;;1.00;0.20;;;20.00;99.90;;;;;;6118523;23;20393;-81
2022/10/22 09:48:18;;;;;;;0.20;0.20;;;20.30;99.90;;;;;;6129148;23;20478;-81
2022/10/22 09:50:53;;;;;;;0.20;0.20;;;20.10;99.90;;;;;;6118959;23;20873;-80
2022/10/22 09:53:34;;;;;;;0.17;0.17;;;20.00;99.90;;;;;;6128031;23;20401;-80
2022/10/22 09:56:24;;;;;;;0.20;0.20;;;20.20;99.90;;;;;;6121334;23;20397;-80
2022/10/22 09:58:54;;;;;;;0.30;0.30;;;20.60;99.90;;;;;;6175408;23;20389;-81
2022/10/22 10:01:25;;;;;;;0.20;0.20;;;20.60;99.90;;;;;;6242278;22;20389;-80
2022/10/22 10:03:52;;;;;;;0.30;0.30;;;20.60;99.90;;;;;;6241732;22;20398;-80
2022/10/22 10:06:22;;;;;;;0.22;0.20;;;20.20;99.90;;;;;;6242023;23;20448;-80
2022/10/22 10:08:49;;;;;;;0.50;0.20;;;20.40;99.90;;;;;;6242142;22;20389;-80
2022/10/22 10:11:27;;;;;;;0.17;0.17;;;20.50;99.90;;;;;;6253548;23;20449;-80
2022/10/22 10:14:27;;;;;;;0.20;0.20;;;21.10;99.90;;;;;;6241725;22;20417;-80
2022/10/22 10:16:54;;;;;;;0.20;0.20;;;20.70;99.90;;;;;;6221035;23;20389;-80
2022/10/22 10:19:53;;;;;;;0.20;0.20;;;20.90;99.90;;;;;;6251682;23;20398;-80
2022/10/22 10:22:28;;;;;;;0.50;0.17;;;20.80;99.90;;;;;;6243910;23;20386;-80
2022/10/22 10:25:36;;;;;;;0.28;0.28;;;20.90;99.90;;;;;;6244109;23;20394;-80
2022/10/22 10:28:13;;;;;;;0.15;0.15;;;21.30;99.90;;;;;;6259016;22;20413;-81
2022/10/22 10:31:05;;;;;;;0.20;0.20;;;21.10;99.90;;;;;;6241814;23;20392;-80
2022/10/22 10:33:54;;;;;;;0.20;0.20;;;21.40;99.90;;;;;;6239401;23;20401;-80
2022/10/22 10:36:47;;;;;;;0.20;0.20;;;21.40;99.90;;;;;;6239842;23;20487;-80
2022/10/22 10:39:28;;;;;;;0.13;0.13;;;21.30;99.90;;;;;;6241097;23;20440;-80
2022/10/22 10:42:14;;;;;;;0.20;0.20;;;21.60;99.90;;;;;;6241818;23;20773;-80
2022/10/22 10:45:25;;;;;;;0.20;0.20;;;21.30;99.90;;;;;;6239743;23;20476;-80
2022/10/22 10:48:02;;;;;;;0.30;0.30;;;20.70;99.90;;;;;;6225852;23;20777;-79
2022/10/22 10:50:36;;;;;;;0.15;0.15;;;20.40;99.90;;;;;;6239725;23;20399;-80
2022/10/22 10:53:33;;;;;;;0.90;0.20;;;20.10;99.90;;;;;;6239771;23;20460;-79
2022/10/22 10:56:03;;;;;;;0.65;0.30;;;20.00;99.90;;;;;;6220090;23;20393;-80
2022/10/22 10:58:55;;;;;;;0.27;0.27;;;19.90;99.90;;;;;;6241598;23;20385;-80
2022/10/22 11:01:42;;;;;;;1.43;0.30;;;20.30;99.90;;;;;;6252213;22;20397;-80
2022/10/22 11:04:30;;;;;;;0.30;0.20;;;20.60;99.90;;;;;;6240453;22;20385;-80
2022/10/22 11:07:03;;;;;;;0.25;0.25;;;20.80;99.90;;;;;;6241505;23;20391;-80
2022/10/22 11:09:49;;;;;;;0.13;0.13;;;20.70;99.90;;;;;;6241509;22;20400;-80
2022/10/22 11:12:30;;;;;;;0.15;0.15;;;20.70;99.90;;;;;;6241775;22;20390;-80
2022/10/22 11:15:23;;;;;;;0.40;0.40;;;20.70;99.90;;;;;;6240975;22;20396;-80
2022/10/22 11:17:54;;;;;;;0.30;0.30;;;20.60;99.90;;;;;;6236089;23;20769;-80
2022/10/22 11:20:56;;;;;;;0.30;0.30;;;20.50;99.90;;;;;;6241214;22;20386;-80
2022/10/22 11:23:31;;;;;;;0.50;0.30;;;20.70;99.90;;;;;;6241506;22;20389;-80
2022/10/22 11:26:00;;;;;;;0.50;0.20;;;20.90;99.90;;;;;;6240301;22;20780;-80
2022/10/22 11:28:40;;;;;;;0.30;0.20;;;20.80;99.90;;;;;;6239945;23;20726;-80
2022/10/22 11:31:14;;;;;;;0.32;0.30;;;20.70;99.90;;;;;;6239263;23;20439;-81
2022/10/22 11:34:22;;;;;;;1.20;0.30;;;20.70;99.90;;;;;;6240730;22;20398;-80
2022/10/22 11:37:03;;;;;;;0.20;0.20;;;20.70;99.90;;;;;;6239862;23;20389;-81
2022/10/22 11:39:44;;;;;;;0.65;0.20;;;20.80;99.90;;;;;;6241139;22;20393;-80
2022/10/22 11:42:20;;;;;;;0.50;0.30;;;21.00;99.90;;;;;;6241101;22;20436;-80
2022/10/22 11:45:00;;;;;;;0.50;0.28;;;21.00;99.90;;;;;;6240504;23;20981;-80
2022/10/22 11:47:40;;;;;;;1.70;0.32;;;21.10;99.90;;;;;;6240633;23;20718;-80
2022/10/22 11:50:24;;;;;;;0.50;0.30;;;21.10;99.90;;;;;;6249496;23;20385;-81
2022/10/22 11:52:59;;;;;;;0.20;0.20;;;21.30;99.90;;;;;;6240646;22;20390;-80
2022/10/22 11:55:54;;;;;;;0.40;0.20;;;21.00;99.90;;;;;;6239408;23;20390;-80
2022/10/22 11:58:38;;;;;;;0.70;0.20;;;21.40;99.90;;;;;;6240964;22;20469;-80
2022/10/22 12:01:08;;;;;;;0.20;0.20;;;21.80;99.90;;;;;;6240787;23;20385;-80
2022/10/22 12:03:39;;;;;;;0.20;0.20;;;21.40;99.90;;;;;;6239995;23;20398;-80
2022/10/22 12:06:52;;;;;;;0.30;0.30;;;21.20;99.90;;;;;;6240802;22;20389;-80
2022/10/22 12:09:24;;;;;;;0.30;0.30;;;21.40;99.90;;;;;;6186188;23;20398;-80
2022/10/22 12:11:51;;;;;;;0.37;0.33;;;21.40;99.90;;;;;;6240682;22;20394;-80
2022/10/22 12:14:49;;;;;;;0.20;0.20;;;21.10;99.90;;;;;;6238716;23;20389;-80
2022/10/22 12:17:18;;;;;;;0.30;0.30;;;21.70;99.90;;;;;;6240742;22;20392;-80
2022/10/22 12:20:06;;;;;;;0.20;0.20;;;21.90;99.90;;;;;;6240706;22;20389;-78
2022/10/22 12:22:36;;;;;;;0.20;0.20;;;22.10;99.90;;;;;;6240399;23;20400;-79
2022/10/22 12:25:18;;;;;;;0.20;0.20;;;22.10;99.90;;;;;;6238037;23;20393;-79
2022/10/22 12:27:50;;;;;;;0.30;0.30;;;21.90;99.90;;;;;;6250873;22;20388;-79
2022/10/22 12:30:17;;;;;;;0.20;0.20;;;22.20;99.90;;;;;;6240634;22;20447;-80
2022/10/22 12:32:44;;;;;;;0.70;0.30;;;22.90;99.90;;;;;;6240685;23;20385;-79
2022/10/22 12:35:17;;;;;;;0.20;0.20;;;23.10;99.90;;;;;;6249575;23;20394;-80
2022/10/22 12:37:47;;;;;;;0.70;0.43;;;23.40;99.90;;;;;;6240665;22;20921;-79
2022/10/22 12:40:20;;;;;;;1.00;0.40;;;23.00;99.90;;;;;;6240025;22;20480;-80
2022/10/22 12:42:51;;;;;;;0.20;0.20;;;22.80;99.90;;;;;;6240452;22;20394;-80
2022/10/22 12:45:18;;;;;;;0.32;0.32;;;23.00;99.90;;;;;;6240049;23;20451;-80
2022/10/22 12:47:54;;;;;;;0.40;0.40;;;23.30;99.90;;;;;;6240765;22;20447;-80
2022/10/22 12:50:30;;;;;;;0.20;0.20;;;23.60;99.90;;;;;;6239984;22;20727;-80
2022/10/22 12:52:57;;;;;;;0.30;0.30;;;23.80;99.90;;;;;;6239562;22;20394;-80
2022/10/22 12:55:25;;;;;;;0.50;0.25;;;23.50;99.90;;;;;;6248894;23;20389;-79
2022/10/22 12:57:52;;;;;;;0.20;0.20;;;23.40;99.90;;;;;;6240858;22;20398;-80
2022/10/22 13:00:27;;;;;;;0.30;0.20;;;23.30;99.90;;;;;;6240552;23;20417;-79
2022/10/22 13:02:58;;;;;;;0.20;0.20;;;23.30;99.90;;;;;;6238498;23;20386;-80
2022/10/22 13:05:26;;;;;;;0.20;0.20;;;23.50;99.90;;;;;;6238867;23;20393;-80
2022/10/22 13:08:07;;;;;;;0.80;0.60;;;23.80;99.90;;;;;;6240464;22;20687;-80
2022/10/22 13:10:37;;;;;;;0.20;0.20;;;23.80;99.90;;;;;;6240837;23;20421;-78
2022/10/22 13:13:07;;;;;;;0.20;0.20;;;23.30;99.90;;;;;;6240250;22;20911;-80
2022/10/22 13:15:40;;;;;;;0.22;0.22;;;23.00;99.90;;;;;;6242257;23;20487;-80
2022/10/22 13:18:15;;;;;;;0.20;0.20;;;23.10;99.90;;;;;;6241218;23;20390;-80
2022/10/22 13:20:56;;;;;;;0.22;0.22;;;22.90;99.90;;;;;;6252488;22;20386;-80
2022/10/22 13:23:26;;;;;;;0.40;0.40;;;22.80;99.90;;;;;;6239984;23;20413;-79
2022/10/22 13:26:16;;;;;;;0.30;0.30;;;22.60;99.90;;;;;;6251888;23;20405;-80
2022/10/22 13:28:57;;;;;;;0.20;0.20;;;22.60;99.90;;;;;;6253396;22;20432;-79